This is the latest recevied weather packets stored in our database for station/object CE4ERM-13. If no packets are shown the sender has not sent any weather packets the latest 10 day(s).
| Time | Temp. | Humidity | Pressure | Rain* | Wind** | Luminosity | Snow |
|---|---|---|---|---|---|---|---|
| 1777267314 | 16.11° C | 45% | 1020.7 hPa | - | - | - | - |
| 1777266766 | 15° C | 49% | 1020.4 hPa | - | - | - | - |
| 1777266714 | 15° C | 49% | 1020.4 hPa | - | - | - | - |
| 1777266442 | 17.22° C | 39% | 1019.8 hPa | - | - | - | - |
| 1777266113 | 16.11° C | 45% | 1020.2 hPa | - | - | - | - |
| 1777265841 | 17.78° C | 39% | 1021.4 hPa | - | - | - | - |
| 1777265513 | 16.11° C | 44% | 1020.2 hPa | - | - | - | - |
| 1777264912 | 17.22° C | 40% | 1020.4 hPa | - | - | - | - |
| 1777264312 | 17.78° C | 39% | 1020.4 hPa | - | - | - | - |
| 1777264040 | 17.78° C | 39% | 1020.9 hPa | - | - | - | - |
| 1777263712 | 17.78° C | 39% | 1020.6 hPa | - | - | - | - |
| 1777263111 | 18.33° C | 39% | 1020.3 hPa | - | - | - | - |
| 1777262839 | 17.78° C | 39% | 1020.1 hPa | - | - | - | - |
| 1777262513 | 18.33° C | 38% | 1020.1 hPa | - | - | - | - |
| 1777261911 | 18.33° C | 39% | 1021 hPa | - | - | - | - |
| 1777261397 | 18.89° C | 38% | 1020.9 hPa | - | - | - | - |
| 1777261311 | 18.89° C | 38% | 1020.9 hPa | - | - | - | - |
| 1777260110 | 18.33° C | 38% | 1020.3 hPa | - | - | - | - |
| 1777259838 | 18.33° C | 37% | 1022.5 hPa | - | - | - | - |
| 1777259510 | 18.33° C | 38% | 1020.3 hPa | - | - | - | - |
| 1777258310 | 18.89° C | 37% | 1021.4 hPa | - | - | - | - |
| 1777258038 | 18.89° C | 37% | 1021.2 hPa | - | - | - | - |
| 1777257710 | 18.89° C | 37% | 1021.4 hPa | - | - | - | - |
| 1777257437 | 18.89° C | 37% | 1022.6 hPa | - | - | - | - |
| 1777256510 | 18.89° C | 36% | 1020.9 hPa | - | - | - | - |
* Rain since midnight (hover to see other rain measurements)
** Current wind speed in m/s (hover to see current wind gust speed)